sensor_id;sensor_type;location;lat;lon;timestamp;pressure;altitude;pressure_sealevel;temperature;humidity
10476;BME280;26166;48.264;11.436;2023-10-09T00:01:07;96905.41;;;17.84;60.52
10476;BME280;26166;48.264;11.436;2023-10-09T00:04:14;96903.75;;;17.83;60.47
10476;BME280;26166;48.264;11.436;2023-10-09T00:07:16;96890.47;;;17.83;60.42
10476;BME280;26166;48.264;11.436;2023-10-09T00:10:16;96887.00;;;17.83;60.50
10476;BME280;26166;48.264;11.436;2023-10-09T00:13:16;96881.69;;;17.83;60.49
10476;BME280;26166;48.264;11.436;2023-10-09T00:16:19;96874.53;;;17.83;60.54
10476;BME280;26166;48.264;11.436;2023-10-09T00:19:32;96871.25;;;17.81;60.47
10476;BME280;26166;48.264;11.436;2023-10-09T00:22:33;96871.25;;;17.81;60.50
10476;BME280;26166;48.264;11.436;2023-10-09T00:25:38;96859.00;;;17.80;60.51
10476;BME280;26166;48.264;11.436;2023-10-09T00:28:44;96856.34;;;17.80;60.47
10476;BME280;26166;48.264;11.436;2023-10-09T00:31:50;96851.03;;;17.80;60.45
10476;BME280;26166;48.264;11.436;2023-10-09T00:34:54;96845.72;;;17.80;60.31
10476;BME280;26166;48.264;11.436;2023-10-09T00:37:58;96839.38;;;17.81;60.25
10476;BME280;26166;48.264;11.436;2023-10-09T00:41:06;96831.41;;;17.81;60.40
10476;BME280;26166;48.264;11.436;2023-10-09T00:44:06;96832.41;;;17.80;60.36
10476;BME280;26166;48.264;11.436;2023-10-09T00:47:09;96827.28;;;17.79;60.41
10476;BME280;26166;48.264;11.436;2023-10-09T00:50:20;96827.28;;;17.79;60.32
10476;BME280;26166;48.264;11.436;2023-10-09T00:53:21;96829.94;;;17.79;60.36
10476;BME280;26166;48.264;11.436;2023-10-09T00:56:30;96822.19;;;17.77;60.57
10476;BME280;26166;48.264;11.436;2023-10-09T00:59:41;96815.03;;;17.78;60.42
10476;BME280;26166;48.264;11.436;2023-10-09T01:02:43;96814.22;;;17.77;60.52
10476;BME280;26166;48.264;11.436;2023-10-09T01:05:45;96814.41;;;17.76;60.48
10476;BME280;26166;48.264;11.436;2023-10-09T01:08:52;96810.53;;;17.78;60.29
10476;BME280;26166;48.264;11.436;2023-10-09T01:12:07;96807.25;;;17.76;60.27
10476;BME280;26166;48.264;11.436;2023-10-09T01:15:16;96796.63;;;17.76;60.16
10476;BME280;26166;48.264;11.436;2023-10-09T01:18:40;96801.13;;;17.76;60.36
10476;BME280;26166;48.264;11.436;2023-10-09T01:21:43;96795.00;;;17.75;60.28
10476;BME280;26166;48.264;11.436;2023-10-09T01:24:43;96795.81;;;17.76;60.21
10476;BME280;26166;48.264;11.436;2023-10-09T01:27:44;96791.69;;;17.73;60.27
10476;BME280;26166;48.264;11.436;2023-10-09T01:30:44;96792.69;;;17.72;60.38
10476;BME280;26166;48.264;11.436;2023-10-09T01:33:45;96788.41;;;17.71;60.18
10476;BME280;26166;48.264;11.436;2023-10-09T01:36:46;96786.56;;;17.72;60.24
10476;BME280;26166;48.264;11.436;2023-10-09T01:39:49;96783.91;;;17.72;60.04
10476;BME280;26166;48.264;11.436;2023-10-09T01:42:50;96785.75;;;17.71;59.96
10476;BME280;26166;48.264;11.436;2023-10-09T01:45:51;96785.75;;;17.71;59.94
10476;BME280;26166;48.264;11.436;2023-10-09T01:48:52;96776.75;;;17.72;60.03
10476;BME280;26166;48.264;11.436;2023-10-09T01:51:53;96776.13;;;17.70;60.01
10476;BME280;26166;48.264;11.436;2023-10-09T01:54:53;96770.81;;;17.70;60.04
10476;BME280;26166;48.264;11.436;2023-10-09T01:58:01;96766.53;;;17.69;60.00
10476;BME280;26166;48.264;11.436;2023-10-09T02:01:25;96763.88;;;17.69;59.93
10476;BME280;26166;48.264;11.436;2023-10-09T02:04:26;96752.63;;;17.67;59.88
10476;BME280;26166;48.264;11.436;2023-10-09T02:07:26;96762.22;;;17.68;59.86
10476;BME280;26166;48.264;11.436;2023-10-09T02:10:27;96754.25;;;17.68;59.85
10476;BME280;26166;48.264;11.436;2023-10-09T02:13:30;96749.97;;;17.67;59.83
10476;BME280;26166;48.264;11.436;2023-10-09T02:16:34;96751.59;;;17.68;59.72
10476;BME280;26166;48.264;11.436;2023-10-09T02:19:42;96750.78;;;17.68;59.71
10476;BME280;26166;48.264;11.436;2023-10-09T02:22:42;96747.50;;;17.65;59.79
10476;BME280;26166;48.264;11.436;2023-10-09T02:25:42;96746.69;;;17.65;59.77
10476;BME280;26166;48.264;11.436;2023-10-09T02:28:44;96744.03;;;17.65;59.80
10476;BME280;26166;48.264;11.436;2023-10-09T02:31:44;96742.19;;;17.65;59.62
10476;BME280;26166;48.264;11.436;2023-10-09T02:34:47;96748.31;;;17.66;59.63
10476;BME280;26166;48.264;11.436;2023-10-09T02:37:48;96737.69;;;17.66;59.55
10476;BME280;26166;48.264;11.436;2023-10-09T02:40:52;96737.69;;;17.66;59.69
10476;BME280;26166;48.264;11.436;2023-10-09T02:44:04;96735.25;;;17.64;59.54
10476;BME280;26166;48.264;11.436;2023-10-09T02:47:11;96731.75;;;17.64;59.52
10476;BME280;26166;48.264;11.436;2023-10-09T02:50:18;96724.81;;;17.63;59.58
10476;BME280;26166;48.264;11.436;2023-10-09T02:53:21;96722.78;;;17.65;59.31
10476;BME280;26166;48.264;11.436;2023-10-09T02:56:30;96717.47;;;17.65;59.41
10476;BME280;26166;48.264;11.436;2023-10-09T02:59:37;96714.81;;;17.65;59.34
10476;BME280;26166;48.264;11.436;2023-10-09T03:02:41;96713.38;;;17.62;59.29
10476;BME280;26166;48.264;11.436;2023-10-09T03:05:41;96711.72;;;17.61;59.29
10476;BME280;26166;48.264;11.436;2023-10-09T03:08:42;96713.56;;;17.61;59.31
10476;BME280;26166;48.264;11.436;2023-10-09T03:11:45;96711.94;;;17.60;59.35
10476;BME280;26166;48.264;11.436;2023-10-09T03:14:48;96706.63;;;17.60;59.28
10476;BME280;26166;48.264;11.436;2023-10-09T03:17:48;96710.09;;;17.54;59.15
10476;BME280;26166;48.264;11.436;2023-10-09T03:20:48;96701.25;;;17.47;59.22
10476;BME280;26166;48.264;11.436;2023-10-09T03:23:51;96701.25;;;17.47;59.26
10476;BME280;26166;48.264;11.436;2023-10-09T03:26:52;96701.91;;;17.49;59.26
10476;BME280;26166;48.264;11.436;2023-10-09T03:29:55;96700.88;;;17.50;59.02
10476;BME280;26166;48.264;11.436;2023-10-09T03:32:55;96702.50;;;17.51;58.97
10476;BME280;26166;48.264;11.436;2023-10-09T03:35:56;96703.31;;;17.51;59.06
10476;BME280;26166;48.264;11.436;2023-10-09T03:38:57;96697.78;;;17.53;58.78
10476;BME280;26166;48.264;11.436;2023-10-09T03:41:58;96701.09;;;17.55;58.76
10476;BME280;26166;48.264;11.436;2023-10-09T03:45:05;96699.47;;;17.54;58.75
10476;BME280;26166;48.264;11.436;2023-10-09T03:48:12;96694.97;;;17.54;58.76
10476;BME280;26166;48.264;11.436;2023-10-09T03:51:21;96704.78;;;17.54;58.70
10476;BME280;26166;48.264;11.436;2023-10-09T03:54:22;96699.47;;;17.54;58.65
10476;BME280;26166;48.264;11.436;2023-10-09T03:57:23;96696.81;;;17.54;58.76
10476;BME280;26166;48.264;11.436;2023-10-09T04:00:23;96702.13;;;17.54;58.80
10476;BME280;26166;48.264;11.436;2023-10-09T04:03:27;96689.66;;;17.54;58.74
10476;BME280;26166;48.264;11.436;2023-10-09T04:06:28;96692.47;;;17.53;58.69
10476;BME280;26166;48.264;11.436;2023-10-09T04:09:34;96689.00;;;17.52;58.71
10476;BME280;26166;48.264;11.436;2023-10-09T04:12:40;96691.06;;;17.50;58.75
10476;BME280;26166;48.264;11.436;2023-10-09T04:15:41;96695.56;;;17.50;58.84
10476;BME280;26166;48.264;11.436;2023-10-09T04:18:42;96689.81;;;17.53;58.64
10476;BME280;26166;48.264;11.436;2023-10-09T04:21:45;96695.16;;;17.53;58.69
10476;BME280;26166;48.264;11.436;2023-10-09T04:24:45;96697.63;;;17.54;58.57
10476;BME280;26166;48.264;11.436;2023-10-09T04:27:48;96689.00;;;17.52;58.53
10476;BME280;26166;48.264;11.436;2023-10-09T04:30:53;96689.00;;;17.52;58.55
10476;BME280;26166;48.264;11.436;2023-10-09T04:33:56;96696.16;;;17.52;58.58
10476;BME280;26166;48.264;11.436;2023-10-09T04:37:22;96693.06;;;17.42;58.74
10476;BME280;26166;48.264;11.436;2023-10-09T04:40:37;96684.69;;;17.38;58.93
10476;BME280;26166;48.264;11.436;2023-10-09T04:43:37;96684.06;;;17.36;59.05
10476;BME280;26166;48.264;11.436;2023-10-09T04:46:47;96680.19;;;17.38;58.93
10476;BME280;26166;48.264;11.436;2023-10-09T04:50:07;96677.53;;;17.38;58.93
10476;BME280;26166;48.264;11.436;2023-10-09T04:53:08;96670.00;;;17.42;58.86
10476;BME280;26166;48.264;11.436;2023-10-09T04:56:14;96675.09;;;17.44;58.96
10476;BME280;26166;48.264;11.436;2023-10-09T04:59:20;96676.75;;;17.45;58.70
10476;BME280;26166;48.264;11.436;2023-10-09T05:02:24;96683.69;;;17.46;58.65
10476;BME280;26166;48.264;11.436;2023-10-09T05:05:36;96682.47;;;17.48;58.66
10476;BME280;26166;48.264;11.436;2023-10-09T05:08:42;96680.66;;;17.49;58.48
10476;BME280;26166;48.264;11.436;2023-10-09T05:11:46;96687.78;;;17.48;58.59
10476;BME280;26166;48.264;11.436;2023-10-09T05:14:52;96687.97;;;17.47;58.71
10476;BME280;26166;48.264;11.436;2023-10-09T05:18:13;96694.09;;;17.47;58.70
10476;BME280;26166;48.264;11.436;2023-10-09T05:21:16;96691.84;;;17.44;58.83
10476;BME280;26166;48.264;11.436;2023-10-09T05:24:31;96694.50;;;17.44;58.70
10476;BME280;26166;48.264;11.436;2023-10-09T05:27:43;96696.34;;;17.44;58.79
10476;BME280;26166;48.264;11.436;2023-10-09T05:30:50;96698.19;;;17.43;58.79
10476;BME280;26166;48.264;11.436;2023-10-09T05:34:02;96697.38;;;17.43;58.78
10476;BME280;26166;48.264;11.436;2023-10-09T05:37:06;96691.03;;;17.44;58.64
10476;BME280;26166;48.264;11.436;2023-10-09T05:40:33;96680.41;;;17.44;58.61
10476;BME280;26166;48.264;11.436;2023-10-09T05:43:35;96694.31;;;17.46;58.41
10476;BME280;26166;48.264;11.436;2023-10-09T05:46:54;96691.84;;;17.44;58.49
10476;BME280;26166;48.264;11.436;2023-10-09T05:50:13;96692.44;;;17.39;58.49
10476;BME280;26166;48.264;11.436;2023-10-09T05:53:13;96695.31;;;17.38;58.41
10476;BME280;26166;48.264;11.436;2023-10-09T05:56:32;96689.78;;;17.39;58.30
10476;BME280;26166;48.264;11.436;2023-10-09T05:59:51;96694.09;;;17.40;58.45
10476;BME280;26166;48.264;11.436;2023-10-09T06:03:10;96697.38;;;17.43;58.45
10476;BME280;26166;48.264;11.436;2023-10-09T06:06:23;96694.72;;;17.43;58.29
10476;BME280;26166;48.264;11.436;2023-10-09T06:09:32;96693.69;;;17.44;58.34
10476;BME280;26166;48.264;11.436;2023-10-09T06:12:49;96691.84;;;17.44;58.20
10476;BME280;26166;48.264;11.436;2023-10-09T06:15:49;96703.31;;;17.45;58.15
10476;BME280;26166;48.264;11.436;2023-10-09T06:18:49;96700.44;;;17.46;58.08
10476;BME280;26166;48.264;11.436;2023-10-09T06:22:07;96704.56;;;17.49;58.05
10476;BME280;26166;48.264;11.436;2023-10-09T06:25:26;96705.38;;;17.49;57.98
10476;BME280;26166;48.264;11.436;2023-10-09T06:28:32;96702.50;;;17.51;57.89
10476;BME280;26166;48.264;11.436;2023-10-09T06:31:33;96697.41;;;17.49;57.84
10476;BME280;26166;48.264;11.436;2023-10-09T06:34:56;96701.47;;;17.52;57.88
10476;BME280;26166;48.264;11.436;2023-10-09T06:37:58;96704.34;;;17.50;57.83
10476;BME280;26166;48.264;11.436;2023-10-09T06:41:01;96709.44;;;17.52;57.83
10476;BME280;26166;48.264;11.436;2023-10-09T06:44:04;96707.59;;;17.52;57.75
10476;BME280;26166;48.264;11.436;2023-10-09T06:47:05;96707.59;;;17.52;57.86
10476;BME280;26166;48.264;11.436;2023-10-09T06:50:09;96708.25;;;17.54;57.71
10476;BME280;26166;48.264;11.436;2023-10-09T06:53:21;96708.41;;;17.53;57.65
10476;BME280;26166;48.264;11.436;2023-10-09T06:56:26;96708.25;;;17.54;57.77
10476;BME280;26166;48.264;11.436;2023-10-09T06:59:28;96711.06;;;17.53;57.73
10476;BME280;26166;48.264;11.436;2023-10-09T07:02:41;96716.81;;;17.50;57.88
10476;BME280;26166;48.264;11.436;2023-10-09T07:05:48;96721.69;;;17.53;57.83
10476;BME280;26166;48.264;11.436;2023-10-09T07:09:05;96731.34;;;17.54;57.95
10476;BME280;26166;48.264;11.436;2023-10-09T07:12:05;96726.03;;;17.54;57.89
10476;BME280;26166;48.264;11.436;2023-10-09T07:15:09;96730.31;;;17.55;58.07
10476;BME280;26166;48.264;11.436;2023-10-09T07:18:42;96731.94;;;17.56;57.84
10476;BME280;26166;48.264;11.436;2023-10-09T07:21:49;96731.94;;;17.56;57.94
10476;BME280;26166;48.264;11.436;2023-10-09T07:24:54;96746.25;;;17.55;57.84
10476;BME280;26166;48.264;11.436;2023-10-09T07:27:57;96744.41;;;17.55;57.88
10476;BME280;26166;48.264;11.436;2023-10-09T07:31:03;96731.34;;;17.54;58.05
10476;BME280;26166;48.264;11.436;2023-10-09T07:34:03;96728.69;;;17.54;58.05
10476;BME280;26166;48.264;11.436;2023-10-09T07:37:07;96737.47;;;17.54;58.03
10476;BME280;26166;48.264;11.436;2023-10-09T07:40:07;96732.97;;;17.55;58.05
10476;BME280;26166;48.264;11.436;2023-10-09T07:43:08;96729.28;;;17.56;58.06
10476;BME280;26166;48.264;11.436;2023-10-09T07:46:09;96729.06;;;17.57;58.03
10476;BME280;26166;48.264;11.436;2023-10-09T07:49:28;96734.22;;;17.59;57.93
10476;BME280;26166;48.264;11.436;2023-10-09T07:52:29;96732.38;;;17.59;57.90
10476;BME280;26166;48.264;11.436;2023-10-09T07:55:29;96740.13;;;17.61;58.02
10476;BME280;26166;48.264;11.436;2023-10-09T07:58:39;96734.81;;;17.61;58.04
10476;BME280;26166;48.264;11.436;2023-10-09T08:01:49;96749.34;;;17.65;58.06
10476;BME280;26166;48.264;11.436;2023-10-09T08:04:52;96755.47;;;17.65;57.95
10476;BME280;26166;48.264;11.436;2023-10-09T08:07:53;96750.97;;;17.66;58.12
10476;BME280;26166;48.264;11.436;2023-10-09T08:11:18;96757.94;;;17.67;57.94
10476;BME280;26166;48.264;11.436;2023-10-09T08:14:39;96756.91;;;17.68;58.20
10476;BME280;26166;48.264;11.436;2023-10-09T08:17:44;96747.91;;;17.69;58.06
10476;BME280;26166;48.264;11.436;2023-10-09T08:20:50;96763.03;;;17.69;58.29
10476;BME280;26166;48.264;11.436;2023-10-09T08:24:11;96755.88;;;17.69;58.19
10476;BME280;26166;48.264;11.436;2023-10-09T08:27:31;96747.72;;;17.71;58.18
10476;BME280;26166;48.264;11.436;2023-10-09T08:30:31;96754.88;;;17.70;58.11
10476;BME280;26166;48.264;11.436;2023-10-09T08:33:44;96749.75;;;17.69;58.10
10476;BME280;26166;48.264;11.436;2023-10-09T08:36:44;96748.75;;;17.70;58.26
10476;BME280;26166;48.264;11.436;2023-10-09T08:39:51;96749.75;;;17.69;58.32
10476;BME280;26166;48.264;11.436;2023-10-09T08:42:53;96747.91;;;17.69;58.24
10476;BME280;26166;48.264;11.436;2023-10-09T08:45:54;96747.91;;;17.69;58.33
10476;BME280;26166;48.264;11.436;2023-10-09T08:49:00;96744.25;;;17.70;58.37
10476;BME280;26166;48.264;11.436;2023-10-09T08:52:04;96743.44;;;17.70;58.44
10476;BME280;26166;48.264;11.436;2023-10-09T08:55:06;96754.88;;;17.70;58.28
10476;BME280;26166;48.264;11.436;2023-10-09T08:58:07;96758.16;;;17.72;58.46
10476;BME280;26166;48.264;11.436;2023-10-09T09:01:20;96766.13;;;17.72;58.46
10476;BME280;26166;48.264;11.436;2023-10-09T09:04:37;96767.97;;;17.72;58.54
10476;BME280;26166;48.264;11.436;2023-10-09T09:07:38;96768.78;;;17.72;58.34
10476;BME280;26166;48.264;11.436;2023-10-09T09:10:42;96778.38;;;17.73;58.46
10476;BME280;26166;48.264;11.436;2023-10-09T09:14:08;96773.28;;;17.72;58.40
10476;BME280;26166;48.264;11.436;2023-10-09T09:17:22;96772.25;;;17.73;58.42
10476;BME280;26166;48.264;11.436;2023-10-09T09:20:27;96775.72;;;17.73;58.40
10476;BME280;26166;48.264;11.436;2023-10-09T09:23:32;96769.59;;;17.73;58.66
10476;BME280;26166;48.264;11.436;2023-10-09T09:26:36;96779.06;;;17.75;58.60
10476;BME280;26166;48.264;11.436;2023-10-09T09:32:37;96764.94;;;17.75;58.60
10476;BME280;26166;48.264;11.436;2023-10-09T09:35:38;96771.09;;;17.75;58.60
10476;BME280;26166;48.264;11.436;2023-10-09T09:38:42;96774.56;;;17.76;58.62
10476;BME280;26166;48.264;11.436;2023-10-09T09:41:47;96779.66;;;17.77;58.74
10476;BME280;26166;48.264;11.436;2023-10-09T09:44:52;96783.56;;;17.81;58.81
10476;BME280;26166;48.264;11.436;2023-10-09T09:47:52;96778.06;;;17.89;58.33
10476;BME280;26166;48.264;11.436;2023-10-09T09:50:52;96781.56;;;17.97;58.12
10476;BME280;26166;48.264;11.436;2023-10-09T09:53:54;96776.47;;;18.02;58.02
10476;BME280;26166;48.264;11.436;2023-10-09T09:56:54;96778.72;;;18.05;57.89
10476;BME280;26166;48.264;11.436;2023-10-09T09:59:56;96780.97;;;18.08;57.66
10476;BME280;26166;48.264;11.436;2023-10-09T10:02:58;96781.59;;;18.10;57.60
10476;BME280;26166;48.264;11.436;2023-10-09T10:06:01;96787.72;;;18.10;57.55
10476;BME280;26166;48.264;11.436;2023-10-09T10:09:09;96782.41;;;18.10;57.28
10476;BME280;26166;48.264;11.436;2023-10-09T10:12:10;96783.44;;;18.09;57.40
10476;BME280;26166;48.264;11.436;2023-10-09T10:15:11;96786.72;;;18.11;57.20
10476;BME280;26166;48.264;11.436;2023-10-09T10:18:17;96791.84;;;18.13;57.29
10476;BME280;26166;48.264;11.436;2023-10-09T10:21:19;96782.00;;;18.13;57.16
10476;BME280;26166;48.264;11.436;2023-10-09T10:28:15;96777.94;;;18.18;56.90
10476;BME280;26166;48.264;11.436;2023-10-09T10:31:13;96788.56;;;18.18;56.88
10476;BME280;26166;48.264;11.436;2023-10-09T10:34:14;96776.09;;;18.18;56.75
10476;BME280;26166;48.264;11.436;2023-10-09T10:37:14;96775.28;;;18.18;56.77
10476;BME280;26166;48.264;11.436;2023-10-09T10:40:22;96769.13;;;18.17;56.76
10476;BME280;26166;48.264;11.436;2023-10-09T10:43:40;96780.81;;;18.16;56.80
10476;BME280;26166;48.264;11.436;2023-10-09T10:46:52;96781.84;;;18.15;56.85
10476;BME280;26166;48.264;11.436;2023-10-09T10:49:54;96778.97;;;18.17;56.85
10476;BME280;26166;48.264;11.436;2023-10-09T10:53:20;96778.75;;;18.18;56.69
10476;BME280;26166;48.264;11.436;2023-10-09T10:56:21;96774.25;;;18.19;56.67
10476;BME280;26166;48.264;11.436;2023-10-09T10:59:40;96767.72;;;18.21;56.57
10476;BME280;26166;48.264;11.436;2023-10-09T11:02:45;96777.97;;;18.24;56.58
10476;BME280;26166;48.264;11.436;2023-10-09T11:05:47;96771.78;;;18.24;56.67
10476;BME280;26166;48.264;11.436;2023-10-09T11:08:51;96769.34;;;18.22;56.65
10476;BME280;26166;48.264;11.436;2023-10-09T11:11:54;96769.97;;;18.24;56.51
10476;BME280;26166;48.264;11.436;2023-10-09T11:15:12;96770.59;;;18.26;56.41
10476;BME280;26166;48.264;11.436;2023-10-09T11:18:22;96767.94;;;18.26;56.29
10476;BME280;26166;48.264;11.436;2023-10-09T11:21:26;96763.25;;;18.28;56.50
10476;BME280;26166;48.264;11.436;2023-10-09T11:24:40;96762.22;;;18.29;56.46
10476;BME280;26166;48.264;11.436;2023-10-09T11:27:43;96765.06;;;18.28;56.51
10476;BME280;26166;48.264;11.436;2023-10-09T11:30:50;96757.94;;;18.28;56.38
10476;BME280;26166;48.264;11.436;2023-10-09T11:33:55;96758.91;;;18.27;56.38
10476;BME280;26166;48.264;11.436;2023-10-09T11:36:56;96753.00;;;18.25;56.41
10476;BME280;26166;48.264;11.436;2023-10-09T11:39:57;96753.00;;;18.25;56.44
10476;BME280;26166;48.264;11.436;2023-10-09T11:42:59;96753.00;;;18.25;56.39
10476;BME280;26166;48.264;11.436;2023-10-09T11:46:10;96748.72;;;18.24;56.35
10476;BME280;26166;48.264;11.436;2023-10-09T11:49:22;96743.41;;;18.24;56.32
10476;BME280;26166;48.264;11.436;2023-10-09T11:52:32;96745.22;;;18.24;56.25
10476;BME280;26166;48.264;11.436;2023-10-09T11:55:36;96746.06;;;18.24;56.19
10476;BME280;26166;48.264;11.436;2023-10-09T11:58:36;96748.91;;;18.23;56.18
10476;BME280;26166;48.264;11.436;2023-10-09T12:01:40;96740.50;;;18.19;56.28
10476;BME280;26166;48.264;11.436;2023-10-09T12:04:53;96737.84;;;18.19;56.24
10476;BME280;26166;48.264;11.436;2023-10-09T12:07:55;96748.47;;;18.19;56.31
10476;BME280;26166;48.264;11.436;2023-10-09T12:10:57;96743.16;;;18.19;56.16
10476;BME280;26166;48.264;11.436;2023-10-09T12:13:57;96744.81;;;18.20;56.20
10476;BME280;26166;48.264;11.436;2023-10-09T12:17:00;96737.03;;;18.19;56.28
10476;BME280;26166;48.264;11.436;2023-10-09T12:20:05;96745.22;;;18.17;56.27
10476;BME280;26166;48.264;11.436;2023-10-09T12:23:14;96750.94;;;18.14;56.46
10476;BME280;26166;48.264;11.436;2023-10-09T12:26:14;96743.16;;;18.12;56.33
10476;BME280;26166;48.264;11.436;2023-10-09T12:29:15;96749.50;;;18.11;56.47
10476;BME280;26166;48.264;11.436;2023-10-09T12:32:15;96747.25;;;18.08;56.39
10476;BME280;26166;48.264;11.436;2023-10-09T12:35:19;96750.13;;;18.07;56.53
10476;BME280;26166;48.264;11.436;2023-10-09T12:38:19;96756.25;;;18.07;56.46
10476;BME280;26166;48.264;11.436;2023-10-09T12:41:22;96749.09;;;18.08;56.50
10476;BME280;26166;48.264;11.436;2023-10-09T12:44:27;96752.78;;;18.07;56.53
10476;BME280;26166;48.264;11.436;2023-10-09T12:47:27;96753.75;;;18.06;56.51
10476;BME280;26166;48.264;11.436;2023-10-09T12:50:27;96744.16;;;18.05;56.46
10476;BME280;26166;48.264;11.436;2023-10-09T12:53:27;96750.50;;;18.04;56.57
10476;BME280;26166;48.264;11.436;2023-10-09T12:56:29;96751.72;;;18.01;56.63
10476;BME280;26166;48.264;11.436;2023-10-09T12:59:38;96750.91;;;18.01;56.57
10476;BME280;26166;48.264;11.436;2023-10-09T13:02:38;96749.28;;;18.00;56.72
10476;BME280;26166;48.264;11.436;2023-10-09T13:05:46;96759.09;;;17.99;56.62
10476;BME280;26166;48.264;11.436;2023-10-09T13:08:52;96755.78;;;17.97;56.70
10476;BME280;26166;48.264;11.436;2023-10-09T13:11:52;96746.00;;;17.98;56.78
10476;BME280;26166;48.264;11.436;2023-10-09T13:14:52;96751.50;;;17.96;56.79
10476;BME280;26166;48.264;11.436;2023-10-09T13:17:53;96749.66;;;17.97;56.86
10476;BME280;26166;48.264;11.436;2023-10-09T13:20:53;96761.31;;;17.96;57.03
10476;BME280;26166;48.264;11.436;2023-10-09T13:23:54;96748.84;;;17.96;56.94
10476;BME280;26166;48.264;11.436;2023-10-09T13:26:57;96740.88;;;17.96;57.00
10476;BME280;26166;48.264;11.436;2023-10-09T13:29:58;96736.38;;;17.97;57.16
10476;BME280;26166;48.264;11.436;2023-10-09T13:33:05;96738.22;;;17.96;57.24
10476;BME280;26166;48.264;11.436;2023-10-09T13:36:05;96734.13;;;17.94;57.39
10476;BME280;26166;48.264;11.436;2023-10-09T13:39:16;96751.72;;;17.95;57.43
10476;BME280;26166;48.264;11.436;2023-10-09T13:42:19;96757.03;;;17.95;57.39
10476;BME280;26166;48.264;11.436;2023-10-09T13:45:19;96752.53;;;17.95;57.43
10476;BME280;26166;48.264;11.436;2023-10-09T13:48:26;96762.34;;;17.95;57.58
10476;BME280;26166;48.264;11.436;2023-10-09T13:51:27;96761.31;;;17.96;57.84
10476;BME280;26166;48.264;11.436;2023-10-09T13:54:29;96750.09;;;17.94;57.89
10476;BME280;26166;48.264;11.436;2023-10-09T13:57:29;96715.31;;;17.95;58.15
10476;BME280;26166;48.264;11.436;2023-10-09T14:00:31;96691.63;;;17.94;58.19
10476;BME280;26166;48.264;11.436;2023-10-09T14:03:35;96679.31;;;17.93;58.73
10476;BME280;26166;48.264;11.436;2023-10-09T14:06:38;96690.81;;;17.93;58.84
10476;BME280;26166;48.264;11.436;2023-10-09T14:09:44;96694.28;;;17.94;59.46
10476;BME280;26166;48.264;11.436;2023-10-09T14:12:44;96699.59;;;17.94;59.33
10476;BME280;26166;48.264;11.436;2023-10-09T14:15:45;96697.94;;;17.93;59.61
10476;BME280;26166;48.264;11.436;2023-10-09T14:18:46;96705.72;;;17.94;59.61
10476;BME280;26166;48.264;11.436;2023-10-09T14:21:46;96698.56;;;17.95;59.96
10476;BME280;26166;48.264;11.436;2023-10-09T14:24:49;96699.59;;;17.94;59.91
10476;BME280;26166;48.264;11.436;2023-10-09T14:27:55;96694.88;;;17.96;59.99
10476;BME280;26166;48.264;11.436;2023-10-09T14:30:55;96691.81;;;17.99;59.65
10476;BME280;26166;48.264;11.436;2023-10-09T14:34:00;96699.41;;;18.02;59.49
10476;BME280;26166;48.264;11.436;2023-10-09T14:37:02;96694.69;;;18.04;59.36
10476;BME280;26166;48.264;11.436;2023-10-09T14:40:03;96698.56;;;18.08;59.43
10476;BME280;26166;48.264;11.436;2023-10-09T14:43:05;96696.53;;;18.10;59.25
10476;BME280;26166;48.264;11.436;2023-10-09T14:46:12;96694.50;;;18.12;59.57
10476;BME280;26166;48.264;11.436;2023-10-09T14:49:12;96693.47;;;18.13;59.63
10476;BME280;26166;48.264;11.436;2023-10-09T14:52:14;96692.44;;;18.14;59.82
10476;BME280;26166;48.264;11.436;2023-10-09T14:55:19;96698.56;;;18.14;59.48
10476;BME280;26166;48.264;11.436;2023-10-09T14:58:20;96703.88;;;18.14;60.18
10476;BME280;26166;48.264;11.436;2023-10-09T15:01:25;96701.84;;;18.17;59.94
10476;BME280;26166;48.264;11.436;2023-10-09T15:04:28;96701.84;;;18.17;60.34
10476;BME280;26166;48.264;11.436;2023-10-09T15:07:28;96703.88;;;18.14;60.15
10476;BME280;26166;48.264;11.436;2023-10-09T15:10:28;96715.16;;;18.17;60.23
10476;BME280;26166;48.264;11.436;2023-10-09T15:13:29;96704.72;;;18.15;60.32
10476;BME280;26166;48.264;11.436;2023-10-09T15:16:30;96699.41;;;18.15;60.60
10476;BME280;26166;48.264;11.436;2023-10-09T15:19:31;96697.75;;;18.14;60.72
10476;BME280;26166;48.264;11.436;2023-10-09T15:22:31;96691.63;;;18.13;60.78
10476;BME280;26166;48.264;11.436;2023-10-09T15:25:36;96687.53;;;18.11;60.72
10476;BME280;26166;48.264;11.436;2023-10-09T15:28:42;96676.91;;;18.11;60.72
10476;BME280;26166;48.264;11.436;2023-10-09T15:31:42;96666.69;;;18.08;60.79
10476;BME280;26166;48.264;11.436;2023-10-09T15:34:42;96668.72;;;18.06;61.00
10476;BME280;26166;48.264;11.436;2023-10-09T15:37:43;96670.56;;;18.05;60.95
10476;BME280;26166;48.264;11.436;2023-10-09T15:40:44;96667.06;;;18.05;61.09
10476;BME280;26166;48.264;11.436;2023-10-09T15:43:47;96665.22;;;18.05;61.18
10476;BME280;26166;48.264;11.436;2023-10-09T15:46:47;96662.19;;;18.08;61.14
10476;BME280;26166;48.264;11.436;2023-10-09T15:49:47;96654.81;;;18.10;60.59
10476;BME280;26166;48.264;11.436;2023-10-09T15:52:47;96648.69;;;18.17;60.72
10476;BME280;26166;48.264;11.436;2023-10-09T15:55:51;96645.41;;;18.21;60.77
10476;BME280;26166;48.264;11.436;2023-10-09T15:58:57;96643.34;;;18.23;60.85
10476;BME280;26166;48.264;11.436;2023-10-09T16:01:57;96637.63;;;18.26;60.86
10476;BME280;26166;48.264;11.436;2023-10-09T16:04:59;96636.59;;;18.27;60.21
10476;BME280;26166;48.264;11.436;2023-10-09T16:08:00;96651.56;;;18.28;60.52
10476;BME280;26166;48.264;11.436;2023-10-09T16:11:00;96647.88;;;18.29;60.30
10476;BME280;26166;48.264;11.436;2023-10-09T16:14:01;96658.50;;;18.29;60.35